Time;durP1;ratioP1;P1;durP2;ratioP2;P2;SDS_P1;SDS_P2;PMS_P1;PMS_P2;Temp;Humidity;BMP_temperature;BMP_pressure;BME280_temperature;BME280_humidity;BME280_pressure;Samples;Min_cycle;Max_cycle;Signal;HPM_P1;HPM_P2
2023/07/15 00:01:23;;;;;;;13.60;12.30;;;;;;;22.37;91.52;93103.81;5009998;28;20249;-76
2023/07/15 00:03:49;;;;;;;14.18;11.95;;;;;;;22.39;91.59;93098.94;5019814;28;20188;-78
2023/07/15 00:06:15;;;;;;;14.23;12.98;;;;;;;22.35;92.17;93106.03;5027980;28;20222;-78
2023/07/15 00:08:41;;;;;;;13.65;12.40;;;;;;;22.31;92.10;93097.19;5018196;28;20247;-79
2023/07/15 00:11:13;;;;;;;13.68;12.48;;;;;;;22.27;92.32;93102.41;5009527;28;20221;-78
2023/07/15 00:13:39;;;;;;;17.25;12.32;;;;;;;22.16;93.15;93095.28;5009140;28;20206;-79
2023/07/15 00:16:04;;;;;;;18.17;12.80;;;;;;;22.23;93.15;93094.69;5007858;28;20245;-79
2023/07/15 00:18:30;;;;;;;14.27;12.95;;;;;;;22.19;92.81;93099.91;5015879;28;20190;-78
2023/07/15 00:20:55;;;;;;;13.82;12.20;;;;;;;22.30;92.50;93095.66;5025801;28;20235;-79
2023/07/15 00:23:23;;;;;;;14.63;13.20;;;;;;;22.36;92.67;93104.94;5009956;28;20189;-78
2023/07/15 00:25:56;;;;;;;14.95;13.38;;;;;;;22.20;93.22;93094.25;5011647;28;20242;-78
2023/07/15 00:28:22;;;;;;;14.05;12.68;;;;;;;22.19;93.24;93094.59;5011500;28;20190;-78
2023/07/15 00:30:53;;;;;;;16.30;14.57;;;;;;;21.99;94.61;93100.84;5017458;28;20250;-78
2023/07/15 00:33:19;;;;;;;14.30;12.90;;;;;;;22.00;93.78;93097.88;5000479;28;20190;-78
2023/07/15 00:35:45;;;;;;;14.32;12.85;;;;;;;21.92;94.38;93106.75;5012621;28;20245;-78
2023/07/15 00:38:12;;;;;;;13.55;12.15;;;;;;;21.77;95.70;93107.44;5028567;28;20185;-81
2023/07/15 00:40:43;;;;;;;13.48;12.15;;;;;;;21.77;95.14;93114.63;5010488;28;20252;-84
2023/07/15 00:43:46;;;;;;;13.93;12.77;;;;;;;21.84;95.35;93109.50;5012036;28;20193;-84
2023/07/15 00:46:17;;;;;;;14.88;13.23;;;;;;;22.01;94.54;93119.88;5009823;28;20311;-84
2023/07/15 00:48:51;;;;;;;16.83;12.98;;;;;;;21.94;94.46;93106.41;5009611;28;20217;-80
2023/07/15 00:51:16;;;;;;;13.45;11.80;;;;;;;21.80;95.30;93109.44;5010033;28;20237;-81
2023/07/15 00:53:42;;;;;;;15.23;13.05;;;;;;;21.79;95.37;93107.88;5014489;28;20188;-84
2023/07/15 00:56:09;;;;;;;15.77;13.30;;;;;;;21.71;96.34;93102.66;5015857;28;20232;-84
2023/07/15 00:58:35;;;;;;;17.13;12.82;;;;;;;21.74;96.32;93094.75;5010266;28;20189;-80
2023/07/15 01:01:01;;;;;;;14.45;13.07;;;;;;;21.81;95.83;93102.22;5010078;28;20233;-84
2023/07/15 01:03:26;;;;;;;14.82;13.40;;;;;;;21.74;96.43;93108.06;5010010;28;20200;-84
2023/07/15 01:05:52;;;;;;;15.20;13.40;;;;;;;21.65;98.27;93106.66;5013128;28;20244;-80
2023/07/15 01:08:17;;;;;;;13.43;12.15;;;;;;;21.69;97.53;93113.63;5013285;28;20188;-85
2023/07/15 01:10:43;;;;;;;14.57;13.18;;;;;;;21.82;97.26;93117.06;5013940;28;20289;-85
2023/07/15 01:13:11;;;;;;;14.73;13.27;;;;;;;21.81;96.93;93124.25;5019375;28;20184;-83
2023/07/15 01:15:37;;;;;;;17.65;14.18;;;;;;;21.64;97.70;93121.03;5014100;28;20238;-84
2023/07/15 01:18:04;;;;;;;16.00;14.23;;;;;;;21.52;97.90;93110.41;5014765;28;20236;-82
2023/07/15 01:20:29;;;;;;;16.75;15.05;;;;;;;21.54;98.50;93121.50;5027306;28;20223;-84
2023/07/15 01:22:54;;;;;;;15.85;14.23;;;;;;;21.52;98.75;93123.72;5014450;28;20217;-84
2023/07/15 01:25:20;;;;;;;16.05;14.40;;;;;;;21.52;98.79;93118.38;5015008;28;20247;-83
2023/07/15 01:27:46;;;;;;;13.95;12.73;;;;;;;21.35;99.54;93114.09;5021052;28;20201;-84
2023/07/15 01:30:11;;;;;;;16.10;14.60;;;;;;;21.43;99.60;93115.84;5015211;28;20228;-84
2023/07/15 01:32:36;;;;;;;15.57;14.07;;;;;;;21.49;99.35;93111.09;5013196;28;20188;-80
2023/07/15 01:35:03;;;;;;;15.73;14.13;;;;;;;21.51;99.75;93122.16;5025832;28;20228;-83
2023/07/15 01:37:29;;;;;;;16.58;14.88;;;;;;;21.40;100.00;93110.44;5012986;28;20181;-83
2023/07/15 01:39:55;;;;;;;15.68;13.90;;;;;;;21.40;100.00;93110.44;5012616;28;20248;-85
2023/07/15 01:42:21;;;;;;;15.40;13.88;;;;;;;21.42;100.00;93122.25;5017256;28;20186;-84
2023/07/15 01:44:46;;;;;;;15.73;14.13;;;;;;;21.39;100.00;93119.50;5025513;28;20254;-81
2023/07/15 01:47:11;;;;;;;15.57;13.93;;;;;;;21.41;100.00;93130.56;5011473;28;20197;-85
2023/07/15 01:49:37;;;;;;;16.00;14.30;;;;;;;21.32;100.00;93127.25;5013885;28;20255;-84
2023/07/15 01:52:02;;;;;;;15.55;13.98;;;;;;;21.32;100.00;93122.72;5013856;28;20196;-84
2023/07/15 01:54:28;;;;;;;15.90;14.45;;;;;;;21.30;100.00;93124.13;5013042;28;20220;-84
2023/07/15 01:56:53;;;;;;;15.80;14.30;;;;;;;21.31;100.00;93118.50;5012886;28;20245;-84
2023/07/15 01:59:19;;;;;;;17.83;14.60;;;;;;;21.21;100.00;93110.19;5011949;28;20217;-84
2023/07/15 02:01:44;;;;;;;14.98;12.65;;;;;;;21.31;100.00;93125.72;5013001;28;20211;-83
2023/07/15 02:04:09;;;;;;;15.70;13.98;;;;;;;21.31;100.00;93131.03;5013253;28;20211;-84
2023/07/15 02:06:35;;;;;;;18.70;14.35;;;;;;;21.29;100.00;93115.38;5013498;28;20259;-84
2023/07/15 02:09:01;;;;;;;15.40;14.10;;;;;;;21.26;100.00;93123.25;5010986;28;20197;-81
2023/07/15 02:11:26;;;;;;;15.40;13.73;;;;;;;21.31;100.00;93128.38;5019915;28;20216;-85
2023/07/15 02:13:51;;;;;;;16.15;14.55;;;;;;;21.22;100.00;93125.00;5017152;28;20190;-85
2023/07/15 02:16:17;;;;;;;14.30;12.88;;;;;;;21.16;100.00;93124.47;5011577;28;20225;-84
2023/07/15 02:18:42;;;;;;;15.32;13.85;;;;;;;21.12;100.00;93122.81;5028418;28;20212;-83
2023/07/15 02:21:09;;;;;;;16.98;13.07;;;;;;;21.11;100.00;93130.00;5021887;28;20230;-85
2023/07/15 02:23:34;;;;;;;15.40;13.90;;;;;;;21.15;100.00;93124.81;5011122;28;20274;-84
2023/07/15 02:26:00;;;;;;;15.30;13.88;;;;;;;21.20;100.00;93122.69;5004766;28;20242;-84
2023/07/15 02:28:27;;;;;;;15.75;14.15;;;;;;;21.21;100.00;93118.16;5012632;28;20185;-85
2023/07/15 02:30:54;;;;;;;15.45;13.88;;;;;;;21.13;100.00;93117.16;5000942;28;20220;-83
2023/07/15 02:33:20;;;;;;;15.52;14.18;;;;;;;21.08;100.00;93119.25;5012456;28;20273;-86
2023/07/15 02:35:45;;;;;;;17.15;14.13;;;;;;;21.00;100.00;93112.94;5012080;28;20242;-85
2023/07/15 02:38:10;;;;;;;15.52;14.07;;;;;;;21.09;100.00;93123.47;5012204;28;20297;-84
2023/07/15 02:40:36;;;;;;;16.40;14.15;;;;;;;20.96;100.00;93121.88;5011509;28;20282;-84
2023/07/15 02:43:01;;;;;;;16.13;13.38;;;;;;;21.01;100.00;93121.69;5011858;28;20196;-83
2023/07/15 02:45:27;;;;;;;15.93;14.23;;;;;;;20.99;100.00;93115.91;5010995;28;20291;-85
2023/07/15 02:47:52;;;;;;;15.38;13.98;;;;;;;20.86;100.00;93109.03;5027622;28;21061;-85
2023/07/15 02:50:20;;;;;;;17.08;15.23;;;;;;;20.81;100.00;93120.59;5011229;28;20222;-83
2023/07/15 02:52:45;;;;;;;17.10;15.30;;;;;;;20.90;100.00;93112.56;5011432;28;20191;-84
2023/07/15 02:55:11;;;;;;;16.60;14.45;;;;;;;20.96;100.00;93122.69;5011162;28;20260;-85
2023/07/15 02:57:37;;;;;;;16.60;14.90;;;;;;;20.95;100.00;93125.63;5012641;28;20212;-83
2023/07/15 03:00:15;;;;;;;16.30;14.15;;;;;;;20.92;100.00;93121.72;5011334;28;20235;-85
2023/07/15 03:02:49;;;;;;;16.60;14.82;;;;;;;20.96;100.00;93113.94;5010365;28;20204;-85
2023/07/15 03:05:15;;;;;;;16.50;14.73;;;;;;;20.99;100.00;93123.88;5010874;28;20265;-82
2023/07/15 03:07:44;;;;;;;14.85;13.45;;;;;;;20.88;100.00;93126.16;5012095;28;20229;-85
2023/07/15 03:10:12;;;;;;;16.33;14.73;;;;;;;20.88;100.00;93126.16;5011654;28;20248;-84
2023/07/15 03:12:37;;;;;;;17.17;14.25;;;;;;;20.94;100.00;93126.72;5022434;28;20235;-79
2023/07/15 03:15:03;;;;;;;16.20;14.60;;;;;;;21.04;100.00;93132.44;5011673;28;20229;-79
2023/07/15 03:17:35;;;;;;;19.30;15.23;;;;;;;20.96;100.00;93137.81;5010570;28;20179;-79
2023/07/15 03:20:19;;;;;;;16.73;14.82;;;;;;;21.06;100.00;93137.41;5017377;28;20234;-79
2023/07/15 03:22:49;;;;;;;17.10;15.38;;;;;;;21.06;100.00;93140.06;5010656;28;20258;-79
2023/07/15 03:25:16;;;;;;;17.48;14.95;;;;;;;21.19;100.00;93137.09;5004740;28;20246;-79
2023/07/15 03:27:42;;;;;;;18.55;15.48;;;;;;;21.10;100.00;93138.28;5010378;28;20188;-79
2023/07/15 03:30:09;;;;;;;17.60;15.30;;;;;;;21.20;100.00;93132.56;5010832;28;20235;-80
2023/07/15 03:32:38;;;;;;;16.48;14.65;;;;;;;21.47;100.00;93142.53;5010754;28;20180;-79
2023/07/15 03:35:04;;;;;;;16.38;14.65;;;;;;;21.43;100.00;93146.97;5028905;28;20236;-79
2023/07/15 03:37:31;;;;;;;17.50;15.45;;;;;;;21.49;100.00;93138.44;5009972;28;20244;-79
2023/07/15 03:39:56;;;;;;;18.80;15.05;;;;;;;21.54;100.00;93126.81;5011168;28;20311;-80
2023/07/15 03:42:22;;;;;;;18.65;14.68;;;;;;;21.52;100.00;93134.34;5011108;28;20185;-79
2023/07/15 03:44:47;;;;;;;15.38;13.95;;;;;;;21.71;100.00;93127.34;5010242;28;20235;-79
2023/07/15 03:47:14;;;;;;;15.73;14.32;;;;;;;21.84;100.00;93120.94;5010551;28;20216;-82
2023/07/15 03:49:39;;;;;;;16.42;14.77;;;;;;;21.97;100.00;93124.34;5009884;28;20243;-79
2023/07/15 03:52:05;;;;;;;14.45;12.95;;;;;;;21.92;100.00;93121.91;5009240;28;20190;-79
2023/07/15 03:54:30;;;;;;;16.42;14.68;;;;;;;22.01;100.00;93114.56;5010642;28;20212;-80
2023/07/15 03:56:56;;;;;;;18.45;14.38;;;;;;;22.19;100.00;93127.25;5011154;28;20213;-79
2023/07/15 03:59:22;;;;;;;17.02;15.05;;;;;;;22.38;99.20;93117.91;5010950;28;20238;-79
2023/07/15 04:01:47;;;;;;;15.98;14.43;;;;;;;22.47;99.28;93127.31;5021890;28;20200;-80
2023/07/15 04:04:13;;;;;;;21.10;14.95;;;;;;;22.72;97.31;93139.44;5009760;28;20233;-79
2023/07/15 04:06:39;;;;;;;15.55;13.90;;;;;;;22.95;96.55;93132.44;5008717;28;20222;-80
2023/07/15 04:09:11;;;;;;;16.17;14.50;;;;;;;23.10;95.22;93147.66;5010493;28;20201;-79
2023/07/15 04:11:36;;;;;;;15.63;14.00;;;;;;;23.06;95.17;93146.00;5017227;28;20225;-80
2023/07/15 04:14:01;;;;;;;18.17;16.27;;;;;;;23.20;93.48;93144.50;5015303;28;20213;-79
2023/07/15 04:16:29;;;;;;;16.73;14.90;;;;;;;23.21;93.96;93154.03;5010654;28;20228;-80
2023/07/15 04:18:54;;;;;;;17.65;15.88;;;;;;;23.22;93.37;93152.13;5016639;28;20196;-79
2023/07/15 04:21:19;;;;;;;17.55;15.75;;;;;;;23.29;93.09;93165.66;5015344;28;20289;-84
2023/07/15 04:23:45;;;;;;;17.27;15.10;;;;;;;23.28;93.71;93167.56;5010016;28;20264;-80
2023/07/15 04:26:11;;;;;;;17.33;15.50;;;;;;;23.31;93.21;93160.75;5018542;28;20260;-80
2023/07/15 04:28:37;;;;;;;23.85;16.48;;;;;;;23.16;94.25;93170.25;5013506;28;20189;-80
2023/07/15 04:31:02;;;;;;;18.15;15.90;;;;;;;23.33;93.73;93179.84;5010489;28;20230;-81
2023/07/15 04:33:28;;;;;;;22.33;16.15;;;;;;;23.47;92.85;93182.88;5010480;28;20277;-81
2023/07/15 04:35:53;;;;;;;19.05;17.13;;;;;;;23.63;91.35;93180.97;5016853;28;20260;-77
2023/07/15 04:38:20;;;;;;;19.15;16.23;;;;;;;23.45;92.42;93193.88;5024476;28;20189;-81
2023/07/15 04:40:46;;;;;;;18.52;16.48;;;;;;;23.15;93.77;93189.25;5013745;28;20281;-77
2023/07/15 04:43:11;;;;;;;22.00;17.30;;;;;;;23.37;93.65;93189.50;5014314;28;20191;-81
2023/07/15 04:45:37;;;;;;;17.40;15.57;;;;;;;23.66;92.24;93194.38;5013481;28;20219;-81
2023/07/15 04:48:03;;;;;;;17.95;16.13;;;;;;;23.73;91.38;93183.13;5014443;28;20217;-78
2023/07/15 04:50:28;;;;;;;18.88;16.75;;;;;;;23.72;91.12;93181.59;5013188;28;20222;-81
2023/07/15 04:52:54;;;;;;;17.75;15.70;;;;;;;23.80;90.30;93175.28;5009491;28;20208;-81
2023/07/15 04:55:20;;;;;;;21.42;16.67;;;;;;;24.39;87.73;93188.47;5013194;28;20232;-80
2023/07/15 04:57:46;;;;;;;17.10;15.15;;;;;;;24.82;84.94;93198.91;5013650;28;20213;-80
2023/07/15 05:00:11;;;;;;;17.08;15.40;;;;;;;24.52;85.67;93185.28;5013464;28;20242;-81
2023/07/15 05:02:37;;;;;;;17.17;15.48;;;;;;;24.23;87.84;93180.50;5015936;28;20218;-82
2023/07/15 05:05:04;;;;;;;17.58;15.27;;;;;;;24.09;88.42;93182.06;5023722;28;20245;-80
2023/07/15 05:07:30;;;;;;;19.50;16.17;;;;;;;24.10;89.39;93186.28;5011965;28;20185;-81
2023/07/15 05:09:55;;;;;;;17.58;14.50;;;;;;;24.03;89.08;93186.91;5012089;28;20248;-81
2023/07/15 05:12:20;;;;;;;18.20;16.40;;;;;;;24.33;86.64;93184.50;5023948;28;20185;-81
2023/07/15 05:14:46;;;;;;;19.65;16.17;;;;;;;24.51;86.16;93191.00;5011868;28;20313;-81
2023/07/15 05:17:11;;;;;;;17.55;15.77;;;;;;;24.71;85.62;93193.34;5021592;28;20185;-82
2023/07/15 05:19:36;;;;;;;16.98;15.15;;;;;;;24.66;86.35;93185.63;5018641;28;20293;-81
2023/07/15 05:22:02;;;;;;;18.00;16.20;;;;;;;24.53;88.82;93186.09;5012648;28;20188;-81
2023/07/15 05:24:28;;;;;;;19.90;16.42;;;;;;;24.84;86.83;93188.66;5013048;28;20213;-80
2023/07/15 05:26:55;;;;;;;22.88;16.67;;;;;;;24.87;84.29;93174.59;5013039;28;20192;-80
2023/07/15 05:29:20;;;;;;;19.00;16.25;;;;;;;25.03;84.31;93191.28;5012754;28;20208;-81
2023/07/15 05:31:46;;;;;;;19.95;16.67;;;;;;;25.12;83.82;93191.84;5014001;28;20191;-79
2023/07/15 05:34:11;;;;;;;17.45;15.68;;;;;;;25.55;81.93;93196.06;5012982;28;20198;-81
2023/07/15 05:36:37;;;;;;;19.20;17.23;;;;;;;25.97;78.96;93181.47;5012988;28;20285;-83
2023/07/15 05:39:02;;;;;;;19.05;17.25;;;;;;;25.55;80.86;93188.84;5012829;28;20191;-78
2023/07/15 05:41:28;;;;;;;19.83;17.88;;;;;;;25.86;79.98;93187.78;5012181;28;20222;-81
2023/07/15 05:43:53;;;;;;;18.60;16.75;;;;;;;26.39;77.81;93195.50;5013135;28;20210;-81
2023/07/15 05:46:19;;;;;;;18.92;15.52;;;;;;;27.15;72.53;93202.22;5012459;28;20453;-81
2023/07/15 05:48:44;;;;;;;17.70;16.05;;;;;;;26.74;74.60;93197.91;5013373;28;20199;-81
2023/07/15 05:51:10;;;;;;;20.52;17.23;;;;;;;28.18;69.13;93215.50;5007500;28;20334;-81
2023/07/15 05:53:36;;;;;;;18.40;16.38;;;;;;;30.44;61.85;93223.22;5012899;28;20179;-78
2023/07/15 05:56:01;;;;;;;23.90;15.20;;;;;;;30.56;59.62;93222.81;5012560;28;20235;-81
2023/07/15 05:58:26;;;;;;;22.83;15.05;;;;;;;32.04;55.50;93236.50;5020626;28;20194;-82
2023/07/15 06:00:52;;;;;;;15.98;13.57;;;;;;;35.41;44.98;93253.78;5029954;28;20236;-82
2023/07/15 06:03:17;;;;;;;15.82;14.27;;;;;;;36.57;41.73;93253.94;5009662;28;20301;-81
2023/07/15 06:05:44;;;;;;;18.88;14.77;;;;;;;37.45;39.11;93251.66;5009945;28;20235;-81
2023/07/15 06:08:10;;;;;;;17.02;14.23;;;;;;;36.36;41.50;93251.72;5003107;28;20199;-80
2023/07/15 06:10:35;;;;;;;16.60;13.57;;;;;;;37.63;39.14;93254.66;5011075;28;20247;-71
2023/07/15 06:13:01;;;;;;;14.45;12.85;;;;;;;35.00;42.41;93250.66;5024808;28;20190;-69
2023/07/15 06:15:26;;;;;;;16.58;13.85;;;;;;;34.65;43.94;93237.69;5009044;28;20255;-79
2023/07/15 06:17:54;;;;;;;15.10;13.55;;;;;;;33.55;47.67;93227.69;5011108;28;20192;-74
2023/07/15 06:20:19;;;;;;;20.77;13.70;;;;;;;38.19;37.32;93258.47;5020934;28;20219;-74
2023/07/15 06:22:45;;;;;;;13.55;12.18;;;;;;;40.40;33.65;93255.47;5012500;28;20632;-74
2023/07/15 06:25:11;;;;;;;16.65;11.90;;;;;;;41.25;30.96;93254.31;5010093;28;20266;-74
2023/07/15 06:27:37;;;;;;;14.50;13.07;;;;;;;39.37;34.17;93242.06;5005147;28;20195;-75
2023/07/15 06:30:04;;;;;;;13.93;12.52;;;;;;;39.04;33.65;93240.91;5009341;28;20235;-76
2023/07/15 06:32:30;;;;;;;14.85;13.30;;;;;;;35.72;39.79;93221.66;5012120;28;20191;-83
2023/07/15 06:34:56;;;;;;;14.60;12.70;;;;;;;35.73;40.91;93221.25;5012170;28;20227;-70
2023/07/15 06:37:21;;;;;;;18.40;13.23;;;;;;;36.49;38.61;93217.97;5008395;28;20191;-71
2023/07/15 06:39:47;;;;;;;15.27;12.90;;;;;;;38.90;35.35;93235.16;5007924;28;20235;-70
2023/07/15 06:42:12;;;;;;;13.23;11.88;;;;;;;39.48;32.76;93247.97;5011338;28;20247;-70
2023/07/15 06:44:38;;;;;;;14.57;12.85;;;;;;;39.72;32.12;93235.34;5010083;28;20234;-71
2023/07/15 06:47:03;;;;;;;14.90;11.63;;;;;;;39.50;33.20;93234.63;5010299;28;20215;-71
2023/07/15 06:49:29;;;;;;;19.08;14.35;;;;;;;39.41;32.99;93244.69;5020475;28;20202;-71
2023/07/15 06:51:54;;;;;;;13.98;12.45;;;;;;;35.73;40.89;93220.47;5012535;28;20201;-70
2023/07/15 06:54:20;;;;;;;15.70;13.18;;;;;;;31.73;49.65;93205.81;5009428;28;20263;-71
2023/07/15 06:56:45;;;;;;;16.63;13.38;;;;;;;30.82;55.38;93195.44;5007694;28;20183;-70
2023/07/15 06:59:10;;;;;;;18.35;14.80;;;;;;;31.03;51.70;93195.34;5009152;28;20192;-72
2023/07/15 07:01:36;;;;;;;17.17;12.85;;;;;;;30.53;53.11;93199.31;5006077;28;20243;-71
2023/07/15 07:04:01;;;;;;;17.42;13.18;;;;;;;29.71;56.29;93203.94;5009425;28;20176;-71
2023/07/15 07:06:28;;;;;;;15.48;13.63;;;;;;;29.21;57.90;93207.66;5008305;28;20234;-71
2023/07/15 07:08:54;;;;;;;16.00;13.50;;;;;;;28.99;58.09;93186.41;5009919;28;20198;-70
2023/07/15 07:11:20;;;;;;;15.43;13.80;;;;;;;29.32;58.95;93203.09;5010001;28;20246;-70
2023/07/15 07:13:46;;;;;;;14.88;12.88;;;;;;;29.23;59.08;93199.97;5009584;28;20210;-70
2023/07/15 07:16:11;;;;;;;15.10;13.60;;;;;;;29.40;58.88;93204.63;5009970;28;20257;-71
2023/07/15 07:18:37;;;;;;;16.27;14.80;;;;;;;29.10;60.07;93200.69;5014813;28;20191;-70
2023/07/15 07:21:02;;;;;;;19.48;13.75;;;;;;;28.80;60.50;93209.00;5007780;28;20226;-71
2023/07/15 07:23:29;;;;;;;15.55;13.90;;;;;;;28.60;59.78;93194.31;5008770;28;20187;-70
2023/07/15 07:25:55;;;;;;;17.50;14.48;;;;;;;28.46;60.13;93194.19;5006730;28;20246;-70
2023/07/15 07:28:38;;;;;;;17.40;15.55;;;;;;;28.51;62.36;93195.78;5006091;28;20187;-73
2023/07/15 07:31:03;;;;;;;16.05;14.30;;;;;;;28.58;60.91;93195.84;5012189;28;20230;-72
2023/07/15 07:33:28;;;;;;;18.42;15.70;;;;;;;28.81;59.73;93199.78;5016646;28;20234;-72
2023/07/15 07:35:54;;;;;;;23.05;15.38;;;;;;;28.75;62.30;93211.28;5009171;28;20239;-71
2023/07/15 07:38:19;;;;;;;17.70;15.10;;;;;;;28.86;61.47;93204.78;5019416;28;20218;-70
2023/07/15 07:40:46;;;;;;;18.65;15.73;;;;;;;28.81;60.93;93202.47;5014800;28;21366;-71
2023/07/15 07:43:11;;;;;;;16.10;14.52;;;;;;;28.55;59.99;93202.72;5004364;28;20191;-72
2023/07/15 07:45:36;;;;;;;17.00;14.77;;;;;;;28.53;62.15;93196.94;5009291;28;20286;-71
2023/07/15 07:48:02;;;;;;;21.90;14.73;;;;;;;28.82;63.11;93190.56;5010455;28;20188;-72
2023/07/15 07:50:27;;;;;;;18.33;14.73;;;;;;;29.10;61.18;93204.16;5010932;28;20235;-71
2023/07/15 07:52:52;;;;;;;16.02;14.40;;;;;;;28.67;62.44;93196.25;5012800;28;20198;-71
2023/07/15 07:55:18;;;;;;;16.52;14.80;;;;;;;28.63;62.42;93198.13;5010457;28;20299;-70
2023/07/15 07:57:43;;;;;;;15.45;13.93;;;;;;;28.14;63.83;93187.84;5012211;28;20203;-72
2023/07/15 08:00:10;;;;;;;20.15;14.68;;;;;;;28.67;62.44;93190.88;5007945;28;20229;-71
2023/07/15 08:02:35;;;;;;;16.80;15.02;;;;;;;28.69;61.87;93192.03;5008814;28;20186;-70
2023/07/15 08:05:00;;;;;;;18.90;14.60;;;;;;;28.67;62.17;93196.25;5014007;28;20215;-69
2023/07/15 08:07:26;;;;;;;16.23;14.30;;;;;;;28.67;62.13;93197.00;5009220;28;20188;-69
2023/07/15 08:09:51;;;;;;;18.60;14.70;;;;;;;28.85;61.44;93183.66;4996974;28;21007;-70
2023/07/15 08:12:17;;;;;;;18.52;16.15;;;;;;;28.92;62.39;93200.59;5019737;28;20179;-70
2023/07/15 08:14:42;;;;;;;16.35;14.68;;;;;;;28.82;61.33;93198.63;5015674;28;20223;-72
2023/07/15 08:17:08;;;;;;;18.45;14.82;;;;;;;28.72;61.94;93193.97;5021740;28;20190;-71
2023/07/15 08:19:33;;;;;;;17.50;15.65;;;;;;;28.85;62.38;93207.84;5022745;28;20191;-71
2023/07/15 08:21:58;;;;;;;18.52;14.63;;;;;;;28.97;60.84;93202.13;5021912;28;20189;-71
2023/07/15 08:24:25;;;;;;;17.00;14.70;;;;;;;29.29;60.74;93206.50;5020893;28;20217;-71
2023/07/15 08:26:50;;;;;;;17.33;14.52;;;;;;;28.98;60.08;93203.69;5009363;28;20208;-70
2023/07/15 08:29:15;;;;;;;18.45;15.55;;;;;;;28.73;60.17;93206.28;5023833;28;20186;-70
2023/07/15 08:31:41;;;;;;;18.52;14.63;;;;;;;28.64;60.04;93194.31;5028026;28;20248;-70
2023/07/15 08:34:06;;;;;;;16.75;13.75;;;;;;;28.76;60.27;93212.81;5015428;28;20192;-71
2023/07/15 08:36:32;;;;;;;17.92;15.90;;;;;;;28.88;59.84;93199.81;5023802;28;20209;-70
2023/07/15 08:38:57;;;;;;;16.65;13.93;;;;;;;29.05;60.89;93209.09;5022544;28;20211;-71
2023/07/15 08:41:24;;;;;;;18.10;15.65;;;;;;;28.95;60.58;93205.22;5015149;28;20227;-70
2023/07/15 08:43:50;;;;;;;17.33;15.55;;;;;;;29.49;60.26;93215.81;5015126;28;20195;-70
2023/07/15 08:46:26;;;;;;;22.92;16.42;;;;;;;29.47;57.94;93211.94;5018131;28;20258;-69
2023/07/15 08:48:53;;;;;;;18.90;15.77;;;;;;;29.25;61.70;93211.13;5023588;28;20259;-70
2023/07/15 08:51:21;;;;;;;22.92;15.77;;;;;;;29.42;59.49;93207.72;5013516;28;20302;-70
2023/07/15 08:53:47;;;;;;;17.17;15.40;;;;;;;29.41;58.14;93206.19;5014112;28;20250;-70
2023/07/15 08:56:13;;;;;;;22.63;14.68;;;;;;;29.43;58.31;93205.78;5009618;28;20221;-70
2023/07/15 08:58:39;;;;;;;18.85;15.55;;;;;;;28.87;60.01;93200.97;5012966;28;20936;-72
2023/07/15 09:01:04;;;;;;;17.63;15.80;;;;;;;29.17;61.19;93200.72;5012337;28;20308;-70
2023/07/15 09:03:29;;;;;;;16.58;14.77;;;;;;;29.46;57.27;93205.81;5021228;28;20197;-69
2023/07/15 09:05:55;;;;;;;25.58;16.63;;;;;;;29.37;58.75;93210.75;5012065;28;20326;-70
2023/07/15 09:08:20;;;;;;;16.60;14.88;;;;;;;29.26;59.40;93209.22;5018039;28;20201;-70
2023/07/15 09:10:53;;;;;;;21.77;16.20;;;;;;;29.23;58.49;93204.59;5016542;28;20283;-70
2023/07/15 09:13:27;;;;;;;19.83;16.08;;;;;;;29.63;59.46;93206.97;5015452;28;20215;-70
2023/07/15 09:15:57;;;;;;;26.60;16.30;;;;;;;29.79;57.90;93209.34;5013883;28;20229;-70
2023/07/15 09:18:23;;;;;;;20.40;15.25;;;;;;;29.89;58.59;93208.56;5013908;28;20187;-70
2023/07/15 09:20:49;;;;;;;19.02;15.75;;;;;;;29.89;56.62;93197.78;5013845;28;20219;-70
2023/07/15 09:23:16;;;;;;;25.42;15.70;;;;;;;29.19;59.18;93199.19;5017935;28;20254;-70
2023/07/15 09:25:54;;;;;;;17.05;15.30;;;;;;;29.64;58.53;93201.25;5011036;28;20233;-70
2023/07/15 09:28:21;;;;;;;17.65;15.95;;;;;;;29.97;58.87;93199.34;5019445;28;20198;-70
2023/07/15 09:30:46;;;;;;;18.48;15.32;;;;;;;29.98;59.23;93193.56;5018070;28;20245;-70
2023/07/15 09:33:29;;;;;;;18.40;15.57;;;;;;;30.06;57.29;93194.31;5026034;28;20193;-70
2023/07/15 09:35:56;;;;;;;18.15;15.45;;;;;;;30.01;60.63;93197.44;5015651;28;20228;-70
2023/07/15 09:38:22;;;;;;;17.20;15.55;;;;;;;29.42;61.20;93186.19;5021441;28;20202;-71
2023/07/15 09:40:48;;;;;;;16.95;15.20;;;;;;;29.82;58.57;93189.72;5015606;28;20230;-71
2023/07/15 09:43:14;;;;;;;20.15;14.95;;;;;;;29.88;58.38;93180.09;5022809;28;20236;-70
2023/07/15 09:45:40;;;;;;;17.13;15.40;;;;;;;30.03;58.31;93187.81;5022578;28;20229;-70
2023/07/15 09:48:10;;;;;;;17.35;15.60;;;;;;;29.68;60.19;93188.53;5023167;28;20206;-70
2023/07/15 09:50:38;;;;;;;17.33;15.55;;;;;;;29.95;60.72;93190.91;5015198;28;20218;-70
2023/07/15 09:53:05;;;;;;;18.83;14.88;;;;;;;29.57;59.68;93170.84;5021832;28;20172;-70
2023/07/15 09:55:32;;;;;;;18.08;16.20;;;;;;;30.05;56.80;93184.72;5021863;28;20233;-72
2023/07/15 09:58:20;;;;;;;18.15;14.95;;;;;;;30.08;57.31;93179.34;5014717;28;20291;-69
2023/07/15 10:00:50;;;;;;;16.50;14.80;;;;;;;30.10;59.37;93170.88;5009091;28;20223;-69
2023/07/15 10:03:29;;;;;;;18.08;15.02;;;;;;;30.15;60.50;93173.19;4999967;28;20187;-71
2023/07/15 10:05:55;;;;;;;19.83;15.65;;;;;;;30.45;60.12;93174.31;5007993;28;20380;-70
2023/07/15 10:08:20;;;;;;;20.48;15.95;;;;;;;30.58;57.46;93169.28;5012208;28;20211;-70
2023/07/15 10:10:47;;;;;;;18.20;15.93;;;;;;;30.79;57.56;93169.22;5009260;28;20232;-70
2023/07/15 10:13:13;;;;;;;21.60;16.15;;;;;;;30.47;57.35;93133.50;5023616;28;20187;-70
2023/07/15 10:15:39;;;;;;;26.48;17.45;;;;;;;30.97;58.18;93169.94;5012357;28;20310;-70
2023/07/15 10:18:13;;;;;;;19.00;14.82;;;;;;;31.08;55.22;93167.97;5020928;28;20194;-69
2023/07/15 10:21:04;;;;;;;20.40;16.70;;;;;;;30.63;58.61;93166.94;5013792;28;20226;-71
2023/07/15 10:23:32;;;;;;;21.00;16.90;;;;;;;31.15;56.12;93171.41;5010141;28;20190;-69
2023/07/15 10:26:08;;;;;;;19.52;15.43;;;;;;;30.85;58.39;93159.59;5010426;28;20290;-71
2023/07/15 10:28:35;;;;;;;23.77;18.10;;;;;;;30.59;57.51;93157.31;5022394;28;20178;-70
2023/07/15 10:31:16;;;;;;;19.88;16.75;;;;;;;30.31;58.59;93168.16;5028944;28;20223;-70
2023/07/15 10:33:55;;;;;;;21.42;16.70;;;;;;;30.35;58.91;93172.41;5027335;28;20183;-70
2023/07/15 10:36:35;;;;;;;19.60;16.50;;;;;;;30.54;57.89;93171.22;5026999;28;20234;-70
2023/07/15 10:39:11;;;;;;;20.58;16.63;;;;;;;30.40;57.68;93174.69;5013613;28;20230;-70
2023/07/15 10:41:43;;;;;;;22.42;17.05;;;;;;;30.16;59.80;93169.31;5009303;28;20277;-70
2023/07/15 10:44:18;;;;;;;27.00;16.65;;;;;;;30.20;57.48;93167.38;5020485;28;20195;-69
2023/07/15 10:46:50;;;;;;;17.55;15.65;;;;;;;30.69;57.16;93167.31;5025052;28;20210;-69
2023/07/15 10:49:17;;;;;;;21.75;17.25;;;;;;;30.82;57.41;93160.38;5007575;28;20271;-71
2023/07/15 10:51:43;;;;;;;20.33;16.45;;;;;;;31.31;55.59;93168.28;5026833;28;20191;-69
2023/07/15 10:54:09;;;;;;;19.20;16.95;;;;;;;31.42;53.88;93173.59;5020205;28;20184;-70
2023/07/15 10:56:34;;;;;;;19.00;16.02;;;;;;;31.55;53.73;93170.03;5013951;28;20234;-70
2023/07/15 10:59:00;;;;;;;23.65;17.00;;;;;;;31.23;54.46;93155.94;5021122;28;20203;-70
2023/07/15 11:01:25;;;;;;;19.95;16.55;;;;;;;31.12;55.77;93161.41;5007548;28;20238;-71
2023/07/15 11:03:50;;;;;;;18.15;16.33;;;;;;;31.46;55.24;93161.63;5024995;28;20198;-70
2023/07/15 11:06:16;;;;;;;16.77;14.68;;;;;;;31.99;53.64;93163.97;5013497;28;20227;-70
2023/07/15 11:08:44;;;;;;;17.38;15.48;;;;;;;31.63;53.74;93160.72;5010594;28;20225;-70
2023/07/15 11:11:10;;;;;;;27.08;15.88;;;;;;;31.14;55.60;93158.31;5014325;28;20222;-70
2023/07/15 11:13:37;;;;;;;23.45;15.18;;;;;;;30.83;54.21;93148.44;5018315;28;20270;-70